createdAt,value
2018-06-17T00:00:50.294Z,9.10
2018-06-17T00:03:19.076Z,10.40
2018-06-17T00:05:48.456Z,9.20
2018-06-17T00:08:17.217Z,9.13
2018-06-17T00:10:46.809Z,9.30
2018-06-17T00:13:15.595Z,10.43
2018-06-17T00:15:44.456Z,9.90
2018-06-17T00:18:13.271Z,10.63
2018-06-17T00:20:42.098Z,10.57
2018-06-17T00:23:11.191Z,9.37
2018-06-17T00:25:41.777Z,11.13
2018-06-17T00:28:10.565Z,10.47
2018-06-17T00:30:39.382Z,9.90
2018-06-17T00:33:08.699Z,10.20
2018-06-17T00:35:37.561Z,10.53
2018-06-17T00:38:06.386Z,11.30
2018-06-17T00:40:35.727Z,11.10
2018-06-17T00:43:04.630Z,11.10
2018-06-17T00:45:35.423Z,11.87
2018-06-17T00:48:05.490Z,10.60
2018-06-17T00:50:34.343Z,10.23
2018-06-17T00:53:03.171Z,9.67
2018-06-17T00:55:32.906Z,10.63
2018-06-17T00:58:01.701Z,10.20
2018-06-17T01:00:30.561Z,10.70
2018-06-17T01:02:59.361Z,11.43
2018-06-17T01:05:28.216Z,9.83
2018-06-17T01:07:57.049Z,10.00
2018-06-17T01:10:25.953Z,10.60
2018-06-17T01:12:54.724Z,9.80
2018-06-17T01:15:23.575Z,10.70
2018-06-17T01:17:52.417Z,11.00
2018-06-17T01:20:21.748Z,11.07
2018-06-17T01:22:50.555Z,10.27
2018-06-17T01:25:20.093Z,10.33
2018-06-17T01:27:48.876Z,10.00
2018-06-17T01:30:17.730Z,11.20
2018-06-17T01:32:46.521Z,11.20
2018-06-17T01:35:15.386Z,10.80
2018-06-17T01:37:44.314Z,10.20
2018-06-17T01:40:13.161Z,10.23
2018-06-17T01:42:42.834Z,10.50
2018-06-17T01:45:11.614Z,11.27
2018-06-17T01:47:40.444Z,11.17
2018-06-17T01:50:09.234Z,11.40
2018-06-17T01:52:38.031Z,11.03
2018-06-17T01:55:08.107Z,10.63
2018-06-17T01:57:38.480Z,9.97
2018-06-17T02:00:09.785Z,11.70
2018-06-17T02:02:38.615Z,11.00
2018-06-17T02:05:15.054Z,12.27
2018-06-17T02:07:49.398Z,11.90
2018-06-17T02:10:23.542Z,12.10
2018-06-17T02:12:52.366Z,13.33
2018-06-17T02:15:21.176Z,12.30
2018-06-17T02:17:50.978Z,11.93
2018-06-17T02:20:19.769Z,13.73
2018-06-17T02:22:52.471Z,14.70
2018-06-17T02:25:21.810Z,16.00
2018-06-17T02:27:50.681Z,15.47
2018-06-17T02:30:19.499Z,17.10
2018-06-17T02:32:48.940Z,16.07
2018-06-17T02:35:17.812Z,15.87
2018-06-17T02:37:46.503Z,15.07
2018-06-17T02:40:17.966Z,13.70
2018-06-17T02:42:46.786Z,16.13
2018-06-17T02:45:20.813Z,13.73
2018-06-17T02:47:54.848Z,16.03
2018-06-17T02:51:30.559Z,14.90
2018-06-17T02:54:04.669Z,14.40
2018-06-17T02:56:34.188Z,13.90
2018-06-17T02:59:02.796Z,14.67
2018-06-17T03:01:31.449Z,15.77
2018-06-17T03:04:00.073Z,15.27
2018-06-17T03:06:32.548Z,15.60
2018-06-17T03:09:04.046Z,14.07
2018-06-17T03:11:32.687Z,15.07
2018-06-17T03:14:01.329Z,14.63
2018-06-17T03:16:30.098Z,15.47
2018-06-17T03:18:59.524Z,15.63
2018-06-17T03:21:28.135Z,17.60
2018-06-17T03:23:56.804Z,15.70
2018-06-17T03:26:30.858Z,16.07
2018-06-17T03:29:05.505Z,16.07
2018-06-17T03:31:39.373Z,15.50
2018-06-17T03:34:08.072Z,16.87
2018-06-17T03:36:36.790Z,18.47
2018-06-17T03:39:08.263Z,18.53
2018-06-17T03:41:36.889Z,19.20
2018-06-17T03:44:05.586Z,18.20
2018-06-17T03:46:34.405Z,19.07
2018-06-17T03:49:03.120Z,21.67
2018-06-17T03:51:32.411Z,20.50
2018-06-17T03:54:01.062Z,19.77
2018-06-17T03:56:29.771Z,20.77
2018-06-17T03:58:59.363Z,20.03
2018-06-17T04:01:33.512Z,21.60
2018-06-17T04:04:02.192Z,20.90
2018-06-17T04:06:31.339Z,22.23
2018-06-17T04:09:00.568Z,19.03
2018-06-17T04:11:29.221Z,20.87
2018-06-17T04:13:58.843Z,21.57
2018-06-17T04:16:27.493Z,20.40
2018-06-17T04:18:56.662Z,20.80
2018-06-17T04:21:25.403Z,20.23
2018-06-17T04:23:54.103Z,19.53
2018-06-17T04:26:24.799Z,20.67
2018-06-17T04:28:55.625Z,21.40
2018-06-17T04:31:25.026Z,20.90
2018-06-17T04:33:53.657Z,19.03
2018-06-17T04:36:22.265Z,19.33
2018-06-17T04:38:50.891Z,21.27
2018-06-17T04:41:20.173Z,18.87
2018-06-17T04:43:48.802Z,18.77
2018-06-17T04:46:17.411Z,19.60
2018-06-17T04:48:46.643Z,18.40
2018-06-17T04:51:15.246Z,18.97
2018-06-17T04:53:45.804Z,20.10
2018-06-17T04:56:14.444Z,18.97
2018-06-17T04:58:44.383Z,18.70
2018-06-17T05:01:14.668Z,18.80
2018-06-17T05:03:43.291Z,18.47
2018-06-17T05:06:11.953Z,18.20
2018-06-17T05:08:41.106Z,17.03
2018-06-17T05:11:09.765Z,15.83
2018-06-17T05:13:38.491Z,16.87
2018-06-17T05:16:07.127Z,16.67
2018-06-17T05:18:35.767Z,16.97
2018-06-17T05:21:04.405Z,15.60
2018-06-17T05:23:33.048Z,15.30
2018-06-17T05:26:02.895Z,15.83
2018-06-17T05:28:31.555Z,14.87
2018-06-17T05:31:00.199Z,14.70
2018-06-17T05:33:28.836Z,15.80
2018-06-17T05:35:57.444Z,14.30
2018-06-17T05:38:26.092Z,14.93
2018-06-17T05:40:55.484Z,15.13
2018-06-17T05:43:24.140Z,14.27
2018-06-17T05:45:59.446Z,14.00
2018-06-17T05:48:28.938Z,12.07
2018-06-17T05:50:57.560Z,10.97
2018-06-17T05:53:27.096Z,9.83
2018-06-17T05:55:55.725Z,11.20
2018-06-17T05:58:24.405Z,11.00
2018-06-17T06:00:53.048Z,13.00
2018-06-17T06:03:21.688Z,10.70
2018-06-17T06:05:53.521Z,9.90
2018-06-17T06:08:23.845Z,11.07
2018-06-17T06:10:52.478Z,10.70
2018-06-17T06:13:21.166Z,11.10
2018-06-17T06:15:52.585Z,8.70
2018-06-17T06:18:21.575Z,8.17
2018-06-17T06:20:51.073Z,6.90
2018-06-17T06:23:24.656Z,6.40
2018-06-17T06:25:53.274Z,5.77
2018-06-17T06:28:21.880Z,4.90
2018-06-17T06:30:50.495Z,4.50
2018-06-17T06:33:19.181Z,6.00
2018-06-17T06:35:47.850Z,4.10
2018-06-17T06:38:16.494Z,4.90
2018-06-17T06:40:45.663Z,4.07
2018-06-17T06:43:14.274Z,4.90
2018-06-17T06:45:42.951Z,3.10
2018-06-17T06:48:11.887Z,3.30
2018-06-17T06:50:40.622Z,3.70
2018-06-17T06:53:09.231Z,4.30
2018-06-17T06:55:37.840Z,3.97
2018-06-17T06:58:06.481Z,3.87
2018-06-17T07:00:36.765Z,3.83
2018-06-17T07:03:10.900Z,3.67
2018-06-17T07:05:44.977Z,3.07
2018-06-17T07:08:19.182Z,3.47
2018-06-17T07:10:47.918Z,3.10
2018-06-17T07:13:18.840Z,2.93
2018-06-17T07:15:53.002Z,3.13
2018-06-17T07:23:41.402Z,3.70
2018-06-17T07:26:26.577Z,3.03
2018-06-17T07:29:00.698Z,2.77
2018-06-17T07:31:29.306Z,2.43
2018-06-17T07:33:57.885Z,2.23
2018-06-17T07:36:26.736Z,2.67
2018-06-17T07:38:55.926Z,2.27
2018-06-17T07:41:24.811Z,2.53
2018-06-17T07:43:55.084Z,2.70
2018-06-17T07:46:30.008Z,2.10
2018-06-17T07:49:36.156Z,2.33
2018-06-17T07:52:11.794Z,2.30
2018-06-17T07:54:42.103Z,2.13
2018-06-17T07:57:11.829Z,2.30
2018-06-17T07:59:40.429Z,1.60
2018-06-17T08:02:09.586Z,2.07
2018-06-17T08:04:38.312Z,1.83
2018-06-17T08:07:07.223Z,1.70
2018-06-17T08:09:36.196Z,1.70
2018-06-17T08:12:05.654Z,1.83
2018-06-17T08:14:34.591Z,1.60
2018-06-17T08:17:04.442Z,1.60
2018-06-17T08:19:36.068Z,1.70
2018-06-17T08:22:05.797Z,1.40
2018-06-17T08:24:35.212Z,1.43
2018-06-17T08:27:04.201Z,1.70
2018-06-17T08:29:33.164Z,1.90
2018-06-17T08:32:02.987Z,1.30
2018-06-17T08:34:32.270Z,1.47
2018-06-17T08:37:02.540Z,1.50
2018-06-17T08:39:31.523Z,1.53
2018-06-17T08:42:00.503Z,1.50
2018-06-17T08:44:29.473Z,1.80
2018-06-17T08:46:58.450Z,1.73
2018-06-17T08:49:28.028Z,1.90
2018-06-17T08:51:57.006Z,1.80
2018-06-17T08:54:26.639Z,2.90
2018-06-17T08:56:56.414Z,13.63
2018-06-17T08:59:25.362Z,1.80
2018-06-17T09:01:54.996Z,1.57
2018-06-17T09:04:23.947Z,1.47
2018-06-17T09:06:57.565Z,1.40
2018-06-17T09:09:26.153Z,2.37
2018-06-17T09:11:54.830Z,11.33
2018-06-17T09:14:23.436Z,6.30
2018-06-17T09:16:52.689Z,2.67
2018-06-17T09:19:21.348Z,8.00
2018-06-17T09:21:49.886Z,4.13
2018-06-17T09:24:18.480Z,1.33
2018-06-17T09:26:47.152Z,6.93
2018-06-17T09:29:15.741Z,2.03
2018-06-17T09:31:44.383Z,2.83
2018-06-17T09:34:12.942Z,1.93
2018-06-17T09:36:41.496Z,1.30
2018-06-17T09:39:10.778Z,1.93
2018-06-17T09:41:39.468Z,2.07
2018-06-17T09:44:08.107Z,1.87
2018-06-17T09:46:36.706Z,1.30
2018-06-17T09:49:05.424Z,2.50
2018-06-17T09:51:33.985Z,1.53
2018-06-17T09:54:02.582Z,1.20
2018-06-17T09:56:31.997Z,1.30
2018-06-17T09:59:01.373Z,1.17
2018-06-17T10:01:30.884Z,4.00
2018-06-17T10:04:00.264Z,2.20
2018-06-17T10:06:28.855Z,4.50
2018-06-17T10:08:57.506Z,2.23
2018-06-17T10:11:26.084Z,4.50
2018-06-17T10:13:54.670Z,2.47
2018-06-17T10:16:23.247Z,3.33
2018-06-17T10:18:51.852Z,1.97
2018-06-17T10:21:20.405Z,1.70
2018-06-17T10:23:49.039Z,1.80
2018-06-17T10:26:18.079Z,2.20
2018-06-17T10:28:46.732Z,1.83
2018-06-17T10:31:15.291Z,1.97
2018-06-17T10:33:43.916Z,1.80
2018-06-17T10:36:12.498Z,1.67
2018-06-17T10:38:41.126Z,2.23
2018-06-17T10:41:09.695Z,2.00
2018-06-17T10:43:43.822Z,3.53
2018-06-17T10:46:27.334Z,2.07
2018-06-17T10:48:55.968Z,2.30
2018-06-17T10:51:24.532Z,2.97
2018-06-17T10:53:53.135Z,3.10
2018-06-17T10:56:21.777Z,2.43
2018-06-17T10:58:50.451Z,2.47
2018-06-17T11:01:19.048Z,3.57
2018-06-17T11:03:47.660Z,2.23
2018-06-17T11:06:17.485Z,3.00
2018-06-17T11:08:47.371Z,5.77
2018-06-17T11:11:16.296Z,7.67
2018-06-17T11:13:44.926Z,10.30
2018-06-17T11:16:13.621Z,11.78
2018-06-17T11:18:42.264Z,12.00
2018-06-17T11:21:10.913Z,14.47
2018-06-17T11:23:39.554Z,6.83
2018-06-17T11:26:15.570Z,10.53
2018-06-17T11:28:45.086Z,11.60
2018-06-17T11:31:13.695Z,9.93
2018-06-17T11:33:42.868Z,5.50
2018-06-17T11:36:11.506Z,5.30
2018-06-17T11:38:40.134Z,7.10
2018-06-17T11:41:08.718Z,5.17
2018-06-17T11:43:37.328Z,3.77
2018-06-17T11:46:05.911Z,3.60
2018-06-17T11:48:34.493Z,3.93
2018-06-17T11:51:03.958Z,3.20
2018-06-17T11:53:33.332Z,3.73
2018-06-17T11:56:02.055Z,3.57
2018-06-17T11:58:31.479Z,3.37
2018-06-17T12:01:04.451Z,3.87
2018-06-17T12:03:34.756Z,4.07
2018-06-17T12:06:03.526Z,4.53
2018-06-17T12:08:32.232Z,4.10
2018-06-17T12:11:05.502Z,4.60
2018-06-17T12:13:34.112Z,3.33
2018-06-17T12:16:02.725Z,4.23
2018-06-17T12:18:32.224Z,4.30
2018-06-17T12:21:00.921Z,4.20
2018-06-17T12:23:30.470Z,4.30
2018-06-17T12:25:59.601Z,3.60
2018-06-17T12:28:28.211Z,3.63
2018-06-17T12:30:56.859Z,3.20
2018-06-17T12:36:20.786Z,3.17
2018-06-17T12:38:49.342Z,3.77
2018-06-17T12:41:18.081Z,3.83
2018-06-17T12:43:47.143Z,3.50
2018-06-17T12:46:15.724Z,3.77
2018-06-17T12:48:44.308Z,3.40
2018-06-17T12:51:12.894Z,3.50
2018-06-17T12:53:41.511Z,3.60
2018-06-17T12:56:10.639Z,3.33
2018-06-17T12:58:39.396Z,4.07
2018-06-17T13:01:08.006Z,3.73
2018-06-17T13:03:36.585Z,3.57
2018-06-17T13:06:05.239Z,4.03
2018-06-17T13:08:33.833Z,4.13
2018-06-17T13:11:02.446Z,4.23
2018-06-17T13:13:31.575Z,3.43
2018-06-17T13:16:00.178Z,4.00
2018-06-17T13:18:28.758Z,4.37
2018-06-17T13:20:57.358Z,4.47
2018-06-17T13:23:26.374Z,4.67
2018-06-17T13:25:56.121Z,4.30
2018-06-17T13:28:24.723Z,4.80
2018-06-17T13:30:53.312Z,5.20
2018-06-17T13:33:21.906Z,4.50
2018-06-17T13:35:50.514Z,4.30
2018-06-17T13:38:19.096Z,4.83
2018-06-17T13:40:48.256Z,5.00
2018-06-17T13:43:16.833Z,4.30
2018-06-17T13:45:45.434Z,4.70
2018-06-17T13:48:14.594Z,4.70
2018-06-17T13:50:43.240Z,4.40
2018-06-17T13:53:11.864Z,4.50
2018-06-17T13:55:40.459Z,5.10
2018-06-17T13:58:09.816Z,4.23
2018-06-17T14:00:38.458Z,4.73
2018-06-17T14:03:07.081Z,4.53
2018-06-17T14:05:35.703Z,4.27
2018-06-17T14:08:04.305Z,4.47
2018-06-17T14:10:33.709Z,4.13
2018-06-17T14:13:02.290Z,4.33
2018-06-17T14:15:31.211Z,4.30
2018-06-17T14:18:00.372Z,4.33
2018-06-17T14:20:28.991Z,4.67
2018-06-17T14:22:57.612Z,4.20
2018-06-17T14:25:26.261Z,3.97
2018-06-17T14:27:55.742Z,4.70
2018-06-17T14:30:24.869Z,4.10
2018-06-17T14:32:54.745Z,3.53
2018-06-17T14:35:25.172Z,3.80
2018-06-17T14:37:53.824Z,4.17
2018-06-17T14:40:23.243Z,3.63
2018-06-17T14:43:00.117Z,3.43
2018-06-17T14:45:34.989Z,3.90
2018-06-17T14:49:07.793Z,4.07
2018-06-17T14:51:41.928Z,3.50
2018-06-17T14:54:11.142Z,3.50
2018-06-17T14:56:39.750Z,3.60
2018-06-17T14:59:08.398Z,3.40
2018-06-17T15:01:37.378Z,3.43
2018-06-17T15:04:08.116Z,3.60
2018-06-17T15:06:39.949Z,4.30
2018-06-17T15:09:23.472Z,3.57
2018-06-17T15:11:52.184Z,3.60
2018-06-17T15:14:21.006Z,3.93
2018-06-17T15:16:49.781Z,4.10
2018-06-17T15:19:18.521Z,3.80
2018-06-17T15:21:47.345Z,4.53
2018-06-17T15:24:16.076Z,4.90
2018-06-17T15:26:44.852Z,4.90
2018-06-17T15:29:13.585Z,5.10
2018-06-17T15:31:47.723Z,5.90
2018-06-17T15:34:22.656Z,5.83
2018-06-17T15:36:56.805Z,5.67
2018-06-17T15:39:30.920Z,4.90
2018-06-17T15:41:59.716Z,4.90
2018-06-17T15:44:28.483Z,4.50
2018-06-17T15:46:57.071Z,4.93
2018-06-17T15:49:31.472Z,4.47
2018-06-17T15:52:00.095Z,4.80
2018-06-17T15:54:28.717Z,5.20
2018-06-17T15:56:57.335Z,4.40
2018-06-17T15:59:25.993Z,4.70
2018-06-17T16:01:54.701Z,5.10
2018-06-17T16:04:23.335Z,5.07
2018-06-17T16:06:52.097Z,5.07
2018-06-17T16:09:21.382Z,5.07
2018-06-17T16:11:56.782Z,5.20
2018-06-17T16:14:30.879Z,5.30
2018-06-17T16:17:05.506Z,5.80
2018-06-17T16:19:39.585Z,5.70
2018-06-17T16:22:09.184Z,5.10
2018-06-17T16:24:37.816Z,5.00
2018-06-17T16:27:12.113Z,4.70
2018-06-17T16:29:40.752Z,4.80
2018-06-17T16:32:09.371Z,4.80
2018-06-17T16:34:38.606Z,5.03
2018-06-17T16:37:07.259Z,5.00
2018-06-17T16:39:41.316Z,5.50
2018-06-17T16:42:10.044Z,5.40
2018-06-17T16:44:41.030Z,5.63
2018-06-17T16:47:10.639Z,5.87
2018-06-17T16:49:40.125Z,5.73
2018-06-17T16:52:15.622Z,5.63
2018-06-17T16:54:50.488Z,6.30
2018-06-17T16:57:25.662Z,6.17
2018-06-17T16:59:58.001Z,5.77
2018-06-17T17:02:27.189Z,6.23
2018-06-17T17:04:56.409Z,6.40
2018-06-17T17:07:25.131Z,5.70
2018-06-17T17:09:53.874Z,6.17
2018-06-17T17:12:24.589Z,6.27
2018-06-17T17:14:53.295Z,6.23
2018-06-17T17:17:22.056Z,6.13
2018-06-17T17:19:52.186Z,7.10
2018-06-17T17:22:21.346Z,6.30
2018-06-17T17:24:50.871Z,6.30
2018-06-17T17:27:20.814Z,5.77
2018-06-17T17:29:51.369Z,6.00
2018-06-17T17:32:25.777Z,5.70
2018-06-17T17:35:00.149Z,6.90
2018-06-17T17:37:34.391Z,6.37
2018-06-17T17:40:08.983Z,6.30
2018-06-17T17:42:39.804Z,6.43
2018-06-17T17:45:11.531Z,6.67
2018-06-17T17:47:40.892Z,5.20
2018-06-17T17:50:11.006Z,6.77
2018-06-17T17:52:46.975Z,6.10
2018-06-17T17:55:15.892Z,6.20
2018-06-17T17:57:45.893Z,6.30
2018-06-17T18:00:14.654Z,6.20
2018-06-17T18:02:43.388Z,5.60
2018-06-17T18:05:14.276Z,6.63
2018-06-17T18:07:44.313Z,6.90
2018-06-17T18:10:13.186Z,7.10
2018-06-17T18:12:43.181Z,6.60
2018-06-17T18:15:11.938Z,6.27
2018-06-17T18:17:40.746Z,6.40
2018-06-17T18:20:09.470Z,6.50
2018-06-17T18:22:38.276Z,7.13
2018-06-17T18:36:48.579Z,7.67
2018-06-17T18:39:17.187Z,6.57
2018-06-17T18:41:46.598Z,6.13
2018-06-17T18:44:15.191Z,5.97
2018-06-17T18:46:43.783Z,5.93
2018-06-17T18:49:12.394Z,5.87
2018-06-17T18:51:40.979Z,5.70
2018-06-17T18:54:09.619Z,5.40
2018-06-17T18:56:38.300Z,6.00
2018-06-17T18:59:07.011Z,6.07
2018-06-17T19:01:35.604Z,6.87
2018-06-17T19:04:04.207Z,5.57
2018-06-17T19:06:33.665Z,5.90
2018-06-17T19:09:07.830Z,6.60
2018-06-17T19:11:43.008Z,7.30
2018-06-17T19:14:17.239Z,6.17
2018-06-17T19:16:51.753Z,6.50
2018-06-17T19:19:20.413Z,6.03
2018-06-17T19:21:49.069Z,6.00
2018-06-17T19:24:21.559Z,5.83
2018-06-17T19:26:50.174Z,5.17
2018-06-17T19:29:18.772Z,6.30
2018-06-17T19:31:47.663Z,5.63
2018-06-17T19:34:16.359Z,5.13
2018-06-17T19:36:45.787Z,5.17
2018-06-17T19:39:14.399Z,6.50
2018-06-17T19:41:43.022Z,6.10
2018-06-17T19:44:11.628Z,5.40
2018-06-17T19:46:40.229Z,5.97
2018-06-17T19:49:10.819Z,6.70
2018-06-17T19:51:44.812Z,7.07
2018-06-17T19:54:21.531Z,6.37
2018-06-17T19:56:55.827Z,6.27
2018-06-17T19:59:29.950Z,7.83
2018-06-17T20:02:01.192Z,5.90
2018-06-17T20:04:29.886Z,6.30
2018-06-17T20:06:58.457Z,6.67
2018-06-17T20:09:27.932Z,6.13
2018-06-17T20:11:56.494Z,5.77
2018-06-17T20:14:25.351Z,5.40
2018-06-17T20:16:54.027Z,5.60
2018-06-17T20:19:23.134Z,5.63
2018-06-17T20:21:51.702Z,5.10
2018-06-17T20:24:20.796Z,5.60
2018-06-17T20:26:49.410Z,5.53
2018-06-17T20:29:18.070Z,5.30
2018-06-17T20:31:51.984Z,5.20
2018-06-17T20:34:26.999Z,6.47
2018-06-17T20:37:02.343Z,5.77
2018-06-17T20:39:38.125Z,5.40
2018-06-17T20:42:16.088Z,5.50
2018-06-17T20:44:45.916Z,5.63
2018-06-17T20:47:14.552Z,5.47
2018-06-17T20:49:43.214Z,5.50
2018-06-17T20:52:12.380Z,5.40
2018-06-17T20:54:40.989Z,4.57
2018-06-17T20:57:10.709Z,6.30
2018-06-17T20:59:40.508Z,5.80
2018-06-17T21:02:09.693Z,5.33
2018-06-17T21:04:39.149Z,5.63
2018-06-17T21:07:08.312Z,6.33
2018-06-17T21:09:37.545Z,6.07
2018-06-17T21:12:06.426Z,6.00
2018-06-17T21:14:35.066Z,5.73
2018-06-17T21:17:03.690Z,5.80
2018-06-17T21:19:37.748Z,5.77
2018-06-17T21:22:11.721Z,5.23
2018-06-17T21:24:46.862Z,5.70
2018-06-17T21:27:21.448Z,6.33
2018-06-17T21:29:50.101Z,5.47
2018-06-17T21:32:18.712Z,5.87
2018-06-17T21:34:47.322Z,6.47
2018-06-17T21:37:15.942Z,6.00
2018-06-17T21:39:47.005Z,6.20
2018-06-17T21:42:16.327Z,6.30
2018-06-17T21:44:45.816Z,5.80
2018-06-17T21:47:14.976Z,6.60
2018-06-17T21:49:44.222Z,6.27
2018-06-17T21:52:14.506Z,5.80
2018-06-17T21:54:44.384Z,6.33
2018-06-17T21:57:13.224Z,6.30
2018-06-17T21:59:42.572Z,6.00
2018-06-17T22:02:11.851Z,6.00
2018-06-17T22:04:41.966Z,5.80
2018-06-17T22:07:12.006Z,6.00
2018-06-17T22:09:46.486Z,6.30
2018-06-17T22:12:20.619Z,7.20
2018-06-17T22:14:54.748Z,6.50
2018-06-17T22:17:28.851Z,6.07
2018-06-17T22:19:57.436Z,6.20
2018-06-17T22:22:26.030Z,6.30
2018-06-17T22:24:55.544Z,6.40
2018-06-17T22:27:24.162Z,6.53
2018-06-17T22:29:53.957Z,6.10
2018-06-17T22:32:22.564Z,6.50
2018-06-17T22:34:51.185Z,7.30
2018-06-17T22:37:21.452Z,6.90
2018-06-17T22:39:50.022Z,6.80
2018-06-17T22:42:18.626Z,6.70
2018-06-17T22:44:47.856Z,6.23
2018-06-17T22:47:21.784Z,6.20
2018-06-17T22:49:51.293Z,7.13
2018-06-17T22:52:23.698Z,6.10
2018-06-17T22:54:54.099Z,6.17
2018-06-17T22:57:28.139Z,6.20
2018-06-17T23:00:02.266Z,5.73
2018-06-17T23:02:36.374Z,5.97
2018-06-17T23:05:10.460Z,5.83
2018-06-17T23:07:44.654Z,5.77
2018-06-17T23:10:13.291Z,6.23
2018-06-17T23:12:41.890Z,5.63
2018-06-17T23:15:10.467Z,5.70
2018-06-17T23:17:39.082Z,5.70
2018-06-17T23:20:11.509Z,6.20
2018-06-17T23:22:40.111Z,5.30
2018-06-17T23:25:09.370Z,5.70
2018-06-17T23:27:38.061Z,6.50
2018-06-17T23:30:07.149Z,4.90
2018-06-17T23:32:36.320Z,5.43
2018-06-17T23:35:05.034Z,5.70
2018-06-17T23:37:37.015Z,5.40
2018-06-17T23:40:06.024Z,5.53
2018-06-17T23:42:34.614Z,6.40
2018-06-17T23:45:03.189Z,5.53
2018-06-17T23:47:37.952Z,5.97
2018-06-17T23:50:12.081Z,6.20
2018-06-17T23:52:46.108Z,5.73
2018-06-17T23:55:20.043Z,5.00
2018-06-17T23:57:49.496Z,5.53
